Time;durP1;ratioP1;P1;durP2;ratioP2;P2;SDS_P1;SDS_P2;PMS_P1;PMS_P2;Temp;Humidity;BMP_temperature;BMP_pressure;BME280_temperature;BME280_humidity;BME280_pressure;Samples;Min_cycle;Max_cycle;Signal;HPM_P1;HPM_P2
2023/05/15 00:00:57;;;;;;;14.10;11.30;;;;;;;15.69;58.07;100852.69;105131;1259;59146;-60
2023/05/15 00:03:24;;;;;;;12.70;10.90;;;;;;;15.64;57.89;100850.14;105310;1260;67034;-62
2023/05/15 00:05:51;;;;;;;14.00;11.10;;;;;;;15.58;58.06;100848.03;106806;1259;64090;-62
2023/05/15 00:08:18;;;;;;;13.10;11.30;;;;;;;15.53;58.02;100847.46;105725;1260;65171;-61
2023/05/15 00:10:45;;;;;;;14.50;11.30;;;;;;;15.45;58.17;100843.77;105045;1255;61147;-61
2023/05/15 00:13:26;;;;;;;13.20;10.50;;;;;;;15.35;58.30;100845.26;105316;1260;60450;-63
2023/05/15 00:15:53;;;;;;;15.00;10.00;;;;;;;15.32;58.44;100843.64;105134;1258;67142;-61
2023/05/15 00:18:21;;;;;;;15.30;11.20;;;;;;;15.32;58.52;100843.99;105097;1259;63825;-61
2023/05/15 00:20:48;;;;;;;14.50;11.10;;;;;;;15.29;58.52;100840.21;104949;1267;65907;-61
2023/05/15 00:23:15;;;;;;;16.20;12.10;;;;;;;15.23;58.81;100845.10;105167;1260;60664;-61
2023/05/15 00:25:42;;;;;;;12.40;11.10;;;;;;;15.20;59.07;100842.79;105161;1254;60442;-62
2023/05/15 00:28:08;;;;;;;13.30;11.40;;;;;;;15.19;59.17;100842.33;105001;1260;67282;-60
2023/05/15 00:30:36;;;;;;;13.30;11.40;;;;;;;15.18;59.51;100845.73;105045;1258;63852;-62
2023/05/15 00:33:03;;;;;;;14.00;11.30;;;;;;;15.20;59.39;100845.91;105469;1263;66190;-61
2023/05/15 00:35:31;;;;;;;12.90;11.20;;;;;;;15.17;59.27;100848.34;105174;1255;60424;-60
2023/05/15 00:37:58;;;;;;;14.80;11.80;;;;;;;15.08;59.37;100852.20;105912;1260;60510;-60
2023/05/15 00:40:24;;;;;;;13.10;10.90;;;;;;;15.11;59.24;100854.37;105121;1254;67355;-60
2023/05/15 00:42:52;;;;;;;14.50;11.40;;;;;;;15.12;59.18;100853.93;105118;1258;63746;-61
2023/05/15 00:45:19;;;;;;;14.10;11.20;;;;;;;15.08;59.12;100851.45;105202;1259;74376;-60
2023/05/15 00:47:46;;;;;;;15.60;12.10;;;;;;;15.03;59.13;100850.48;105147;1267;60420;-61
2023/05/15 00:50:13;;;;;;;14.20;11.90;;;;;;;14.98;59.24;100848.70;105202;1259;60454;-60
2023/05/15 00:52:40;;;;;;;13.20;11.20;;;;;;;14.92;59.27;100849.53;105085;1253;67250;-61
2023/05/15 00:55:07;;;;;;;13.90;11.40;;;;;;;14.87;59.39;100844.20;105154;1259;62962;-60
2023/05/15 00:57:34;;;;;;;17.30;11.30;;;;;;;14.81;59.42;100845.63;108102;1259;66105;-61
2023/05/15 01:00:09;;;;;;;14.70;12.60;;;;;;;14.74;59.56;100842.90;106696;1255;60450;-61
2023/05/15 01:02:36;;;;;;;12.50;11.20;;;;;;;14.71;59.75;100840.55;105421;1259;60562;-62
2023/05/15 01:05:06;;;;;;;13.00;11.00;;;;;;;14.73;59.90;100836.45;105640;1255;67901;-61
2023/05/15 01:07:34;;;;;;;13.60;11.00;;;;;;;14.80;60.11;100833.33;105639;1257;63729;-62
2023/05/15 01:10:03;;;;;;;14.70;10.90;;;;;;;14.87;60.16;100830.95;104922;1259;65907;-61
2023/05/15 01:12:30;;;;;;;14.40;10.80;;;;;;;14.92;60.26;100832.46;105735;1253;60483;-61
2023/05/15 01:14:57;;;;;;;13.10;11.70;;;;;;;14.93;60.29;100832.46;105787;1259;60488;-62
2023/05/15 01:17:24;;;;;;;11.90;10.40;;;;;;;14.95;60.28;100832.51;105497;1254;67472;-62
2023/05/15 01:19:52;;;;;;;12.40;11.10;;;;;;;14.94;60.00;100837.34;105887;1260;62590;-62
2023/05/15 01:22:29;;;;;;;13.70;11.70;;;;;;;14.92;59.96;100835.44;105066;1260;64899;-61
2023/05/15 01:25:15;;;;;;;14.70;12.40;;;;;;;14.85;60.02;100830.40;105219;1259;60529;-60
2023/05/15 01:28:14;;;;;;;13.40;11.80;;;;;;;14.78;60.09;100832.63;105144;1258;60967;-60
2023/05/15 01:31:13;;;;;;;13.60;11.40;;;;;;;14.71;60.41;100831.65;104831;1254;67572;-61
2023/05/15 01:33:41;;;;;;;14.00;11.80;;;;;;;14.71;60.43;100836.11;105047;1254;63668;-62
2023/05/15 01:36:30;;;;;;;13.60;11.20;;;;;;;14.70;60.51;100837.57;104781;1260;65974;-60
2023/05/15 01:38:58;;;;;;;16.70;11.50;;;;;;;14.68;60.67;100834.02;104552;1259;60620;-61
2023/05/15 01:41:30;;;;;;;15.40;12.10;;;;;;;14.65;60.89;100836.18;105597;1263;60606;-61
2023/05/15 01:44:19;;;;;;;13.80;12.30;;;;;;;14.54;61.21;100838.49;107737;1257;67434;-61
2023/05/15 01:46:49;;;;;;;16.90;11.70;;;;;;;14.40;61.50;100844.29;105031;1262;63999;-61
2023/05/15 01:49:17;;;;;;;14.00;11.90;;;;;;;14.28;61.53;100842.88;105653;1265;66436;-59
2023/05/15 01:51:46;;;;;;;14.30;12.50;;;;;;;14.19;61.41;100842.07;104680;1265;60607;-60
2023/05/15 01:54:13;;;;;;;16.30;11.80;;;;;;;14.09;61.21;100836.08;104827;1263;60491;-60
2023/05/15 01:56:40;;;;;;;12.20;10.90;;;;;;;14.06;61.08;100835.11;107965;1257;67298;-60
2023/05/15 01:59:07;;;;;;;12.30;10.80;;;;;;;14.05;61.04;100830.08;105669;1260;62033;-61
2023/05/15 02:01:34;;;;;;;15.20;11.80;;;;;;;14.04;61.00;100825.09;104802;1264;66214;-60
2023/05/15 02:04:01;;;;;;;14.60;11.90;;;;;;;14.00;60.99;100824.33;104717;1264;60656;-61
2023/05/15 02:06:30;;;;;;;14.50;12.00;;;;;;;13.99;60.94;100825.89;106319;1262;59246;-62
2023/05/15 02:08:56;;;;;;;12.50;11.10;;;;;;;13.96;60.90;100826.64;104736;1258;67210;-65
2023/05/15 02:11:23;;;;;;;15.40;12.70;;;;;;;13.92;60.92;100825.56;105162;1258;63917;-61
2023/05/15 02:13:51;;;;;;;13.40;11.50;;;;;;;13.89;60.82;100823.67;106483;1259;65129;-61
2023/05/15 02:16:18;;;;;;;15.40;11.90;;;;;;;13.86;60.97;100822.91;105909;1260;60457;-60
2023/05/15 02:18:45;;;;;;;13.00;10.10;;;;;;;13.88;61.15;100823.09;104982;1260;60614;-61
2023/05/15 02:21:13;;;;;;;14.20;11.20;;;;;;;13.93;61.40;100823.33;105382;1261;67155;-59
2023/05/15 02:23:41;;;;;;;13.10;11.10;;;;;;;13.96;61.58;100820.30;105055;1262;62638;-60
2023/05/15 02:26:20;;;;;;;15.30;12.20;;;;;;;13.97;61.82;100823.19;105172;1254;65918;-60
2023/05/15 02:28:59;;;;;;;17.20;12.50;;;;;;;14.00;62.03;100827.34;105932;1254;61096;-60
2023/05/15 02:32:04;;;;;;;15.90;12.90;;;;;;;14.04;62.16;100826.83;105122;1255;60561;-59
2023/05/15 02:34:51;;;;;;;13.70;11.80;;;;;;;14.08;62.10;100826.13;105564;1259;65974;-61
2023/05/15 02:37:23;;;;;;;16.40;13.20;;;;;;;14.08;61.97;100827.16;105167;1260;63783;-60
2023/05/15 02:39:53;;;;;;;14.70;11.70;;;;;;;14.05;62.01;100829.35;105131;1255;65887;-61
2023/05/15 02:42:20;;;;;;;18.90;13.00;;;;;;;14.07;61.99;100833.78;106465;1254;60608;-60
2023/05/15 02:44:47;;;;;;;15.20;11.80;;;;;;;14.12;61.99;100834.95;105178;1255;60457;-63
2023/05/15 02:47:14;;;;;;;15.80;13.00;;;;;;;14.19;62.00;100836.84;105395;1259;68138;-60
2023/05/15 02:49:41;;;;;;;15.60;12.70;;;;;;;14.23;61.90;100840.13;105275;1254;63816;-59
2023/05/15 02:52:08;;;;;;;18.50;12.60;;;;;;;14.27;61.75;100831.85;105136;1257;73274;-60
2023/05/15 02:54:35;;;;;;;15.30;12.40;;;;;;;14.28;61.70;100831.89;105132;1258;60559;-60
2023/05/15 02:57:03;;;;;;;15.10;12.70;;;;;;;14.28;61.65;100831.02;105358;1260;60537;-61
2023/05/15 02:59:30;;;;;;;18.60;13.40;;;;;;;14.27;61.54;100829.55;105088;1254;66035;-61
2023/05/15 03:01:57;;;;;;;15.20;12.80;;;;;;;14.25;61.54;100828.06;105235;1257;63598;-60
2023/05/15 03:04:24;;;;;;;14.80;13.20;;;;;;;14.24;61.30;100826.27;105154;1259;66192;-59
2023/05/15 03:06:51;;;;;;;18.50;12.70;;;;;;;14.26;61.19;100825.86;105120;1254;60402;-60
2023/05/15 03:09:19;;;;;;;15.40;12.40;;;;;;;14.32;61.04;100825.75;106575;1254;60891;-60
2023/05/15 03:11:46;;;;;;;18.20;13.50;;;;;;;14.39;60.76;100822.53;105122;1255;67066;-61
2023/05/15 03:14:13;;;;;;;16.90;13.20;;;;;;;14.42;60.30;100822.73;105167;1260;63421;-60
2023/05/15 03:16:41;;;;;;;17.20;13.40;;;;;;;14.41;59.58;100824.13;106089;1254;66351;-60
2023/05/15 03:19:08;;;;;;;17.70;13.70;;;;;;;14.36;59.40;100824.89;107082;1259;60470;-60
2023/05/15 03:21:35;;;;;;;15.00;12.70;;;;;;;14.35;59.52;100820.38;105324;1254;60345;-59
2023/05/15 03:24:02;;;;;;;15.50;13.60;;;;;;;14.36;59.51;100821.39;106363;1255;66084;-62
2023/05/15 03:26:29;;;;;;;15.50;12.90;;;;;;;14.36;59.61;100823.27;105256;1257;64147;-62
2023/05/15 03:28:56;;;;;;;16.20;12.90;;;;;;;14.35;59.76;100823.73;105882;1254;66118;-60
2023/05/15 03:31:23;;;;;;;16.80;14.00;;;;;;;14.36;59.93;100828.77;109027;1254;58467;-61
2023/05/15 03:33:50;;;;;;;13.60;11.30;;;;;;;14.39;60.15;100832.73;109155;1260;58251;-60
2023/05/15 03:36:17;;;;;;;15.50;12.80;;;;;;;14.48;60.36;100836.90;106664;1255;66192;-62
2023/05/15 03:38:44;;;;;;;13.50;12.10;;;;;;;14.57;60.31;100836.11;105164;1260;62662;-60
2023/05/15 03:41:11;;;;;;;14.90;12.60;;;;;;;14.62;60.29;100837.08;105251;1260;66199;-61
2023/05/15 03:43:38;;;;;;;20.80;13.60;;;;;;;14.65;60.36;100833.92;105109;1254;60533;-59
2023/05/15 03:46:05;;;;;;;17.20;13.70;;;;;;;14.69;60.33;100835.86;105067;1254;60462;-61
2023/05/15 03:48:32;;;;;;;19.60;13.40;;;;;;;14.74;60.16;100839.32;105166;1256;66024;-61
2023/05/15 03:50:59;;;;;;;17.90;14.00;;;;;;;14.79;60.18;100839.23;104918;1260;63795;-62
2023/05/15 03:53:29;;;;;;;16.90;12.80;;;;;;;14.85;60.09;100841.04;105222;1254;66240;-61
2023/05/15 03:55:56;;;;;;;17.80;12.90;;;;;;;14.93;59.90;100837.48;105686;1260;60453;-61
2023/05/15 03:58:25;;;;;;;14.70;12.00;;;;;;;15.03;59.57;100836.46;105094;1254;61198;-62
2023/05/15 04:00:52;;;;;;;15.60;13.00;;;;;;;15.16;59.15;100837.98;108396;1254;67336;-60
2023/05/15 04:03:19;;;;;;;16.90;12.90;;;;;;;15.24;58.68;100834.97;106063;1254;63453;-62
2023/05/15 04:05:48;;;;;;;18.50;13.70;;;;;;;15.31;58.60;100840.84;106129;1254;65125;-61
2023/05/15 04:08:16;;;;;;;17.30;13.30;;;;;;;15.36;58.07;100839.69;105229;1261;61208;-61
2023/05/15 04:10:42;;;;;;;16.60;13.90;;;;;;;15.38;57.78;100836.44;105101;1259;60523;-62
2023/05/15 04:13:09;;;;;;;16.20;13.30;;;;;;;15.38;57.80;100834.75;104939;1254;69478;-61
2023/05/15 04:15:36;;;;;;;14.30;12.80;;;;;;;15.42;57.80;100837.05;104992;1254;63524;-60
2023/05/15 04:18:03;;;;;;;16.80;13.00;;;;;;;15.49;57.63;100838.11;104967;1258;65249;-62
2023/05/15 04:20:32;;;;;;;16.80;14.00;;;;;;;15.52;57.49;100839.75;105023;1259;60628;-61
2023/05/15 04:23:33;;;;;;;15.20;12.60;;;;;;;15.53;57.67;100840.44;105613;1254;60357;-60
2023/05/15 04:26:04;;;;;;;13.70;12.00;;;;;;;15.64;57.04;100841.48;105267;1254;65969;-60
2023/05/15 04:28:31;;;;;;;19.70;12.70;;;;;;;15.82;56.20;100844.27;106958;1254;63625;-60
2023/05/15 04:30:58;;;;;;;16.60;12.80;;;;;;;15.98;56.40;100845.20;105759;1254;65861;-60
2023/05/15 04:33:25;;;;;;;18.20;13.20;;;;;;;16.24;56.23;100842.77;105111;1254;60599;-60
2023/05/15 04:35:52;;;;;;;18.50;13.00;;;;;;;16.41;56.03;100839.30;105031;1253;60454;-59
2023/05/15 04:38:19;;;;;;;15.80;13.40;;;;;;;16.52;56.07;100836.49;105569;1260;67299;-60
2023/05/15 04:40:46;;;;;;;14.50;12.40;;;;;;;16.65;55.69;100832.96;106123;1254;66779;-60
2023/05/15 04:43:13;;;;;;;17.20;13.00;;;;;;;16.74;55.15;100831.12;106957;1254;66284;-60
2023/05/15 04:45:40;;;;;;;15.10;12.60;;;;;;;16.82;54.37;100834.78;105186;1254;60626;-60
2023/05/15 04:48:07;;;;;;;15.70;13.00;;;;;;;16.86;54.21;100833.49;105148;1261;60513;-61
2023/05/15 04:50:35;;;;;;;14.70;12.20;;;;;;;16.94;54.07;100836.30;105074;1259;67386;-62
2023/05/15 04:53:02;;;;;;;16.90;13.40;;;;;;;17.01;53.81;100832.38;105052;1260;63703;-60
2023/05/15 04:55:30;;;;;;;18.20;14.10;;;;;;;17.06;53.56;100832.39;105305;1255;66196;-60
2023/05/15 04:58:01;;;;;;;16.00;12.60;;;;;;;17.10;53.64;100830.09;105253;1254;60411;-64
2023/05/15 05:00:28;;;;;;;14.70;12.30;;;;;;;17.18;53.82;100829.42;106766;1257;60520;-62
2023/05/15 05:02:55;;;;;;;14.60;11.40;;;;;;;17.33;53.67;100825.23;106027;1253;66172;-59
2023/05/15 05:05:22;;;;;;;17.50;12.10;;;;;;;17.50;53.56;100825.53;105207;1260;63767;-62
2023/05/15 05:07:50;;;;;;;16.40;11.70;;;;;;;17.62;53.45;100827.64;105351;1254;66325;-60
2023/05/15 05:10:17;;;;;;;17.00;11.30;;;;;;;17.62;53.78;100824.41;105376;1254;60555;-60
2023/05/15 05:12:45;;;;;;;13.10;11.60;;;;;;;17.83;53.61;100823.05;105252;1259;60383;-60
2023/05/15 05:15:12;;;;;;;14.80;12.60;;;;;;;17.95;53.30;100821.58;105715;1254;66039;-61
2023/05/15 05:17:38;;;;;;;15.40;11.70;;;;;;;18.04;53.10;100819.20;105826;1265;63971;-59
2023/05/15 05:20:09;;;;;;;13.00;11.40;;;;;;;18.13;52.98;100815.80;104610;1268;65060;-60
2023/05/15 05:22:39;;;;;;;14.60;11.10;;;;;;;18.22;52.37;100811.52;107096;1253;60495;-61
2023/05/15 05:25:07;;;;;;;15.80;11.10;;;;;;;18.30;51.97;100808.69;106468;1254;60389;-61
2023/05/15 05:27:33;;;;;;;14.20;10.90;;;;;;;18.39;51.89;100813.48;105692;1260;67318;-61
2023/05/15 05:30:01;;;;;;;16.10;11.10;;;;;;;18.46;51.72;100814.06;105108;1254;63744;-60
2023/05/15 05:32:27;;;;;;;12.20;9.80;;;;;;;18.53;51.62;100815.59;105039;1260;65292;-61
2023/05/15 05:34:55;;;;;;;14.30;10.60;;;;;;;18.61;50.95;100814.98;105803;1260;60383;-61
2023/05/15 05:37:22;;;;;;;12.70;10.20;;;;;;;18.68;50.61;100817.48;106045;1253;60425;-61
2023/05/15 05:39:49;;;;;;;12.10;9.50;;;;;;;18.76;50.21;100818.55;105589;1254;68230;-61
2023/05/15 05:42:27;;;;;;;12.30;10.10;;;;;;;18.82;49.88;100820.91;105278;1254;63672;-60
2023/05/15 05:44:54;;;;;;;13.00;9.70;;;;;;;18.91;50.26;100817.28;105581;1254;65148;-62
2023/05/15 05:48:12;;;;;;;13.40;10.30;;;;;;;19.04;50.39;100812.55;104544;1254;60732;-61
2023/05/15 05:50:43;;;;;;;13.60;11.10;;;;;;;19.10;50.74;100812.05;105102;1264;60604;-60
2023/05/15 05:53:10;;;;;;;11.20;9.60;;;;;;;19.05;50.97;100811.22;104621;1255;67530;-60
2023/05/15 05:55:37;;;;;;;13.00;8.50;;;;;;;19.09;50.50;100811.94;105050;1254;63850;-60
2023/05/15 05:58:04;;;;;;;12.80;9.60;;;;;;;19.22;49.90;100808.79;105092;1254;65948;-60
2023/05/15 06:00:43;;;;;;;12.20;9.70;;;;;;;19.43;49.72;100809.80;105026;1253;61663;-64
2023/05/15 06:03:17;;;;;;;12.10;9.20;;;;;;;19.52;49.81;100808.50;104967;1260;60501;-62
2023/05/15 06:05:49;;;;;;;13.40;10.10;;;;;;;19.52;49.82;100806.57;104702;1262;67486;-61
2023/05/15 06:08:17;;;;;;;12.70;9.40;;;;;;;19.43;50.02;100804.65;105122;1254;63521;-62
2023/05/15 06:10:47;;;;;;;12.90;9.30;;;;;;;19.46;49.69;100806.31;104825;1261;65255;-62
2023/05/15 06:13:19;;;;;;;10.50;8.10;;;;;;;19.63;49.22;100806.92;104604;1257;60555;-62
2023/05/15 06:15:46;;;;;;;9.80;8.30;;;;;;;19.64;49.39;100808.53;105320;1254;60626;-62
2023/05/15 06:18:13;;;;;;;11.20;8.90;;;;;;;19.65;49.37;100808.46;104928;1259;67631;-59
2023/05/15 06:20:44;;;;;;;11.60;7.30;;;;;;;19.80;49.05;100808.60;104835;1259;62683;-64
2023/05/15 06:23:11;;;;;;;12.60;7.80;;;;;;;19.83;48.51;100807.31;105758;1257;66534;-68
2023/05/15 06:25:42;;;;;;;9.70;7.40;;;;;;;19.90;47.93;100810.16;109117;1253;72188;-87
2023/05/15 06:28:12;;;;;;;10.30;6.60;;;;;;;20.00;47.36;100805.67;109081;1254;58074;-88
2023/05/15 06:30:43;;;;;;;10.50;6.30;;;;;;;20.11;46.14;100805.33;107984;1254;67027;-87
2023/05/15 06:33:16;;;;;;;9.20;6.30;;;;;;;20.21;45.33;100803.11;107106;1257;63124;-89
2023/05/15 06:35:48;;;;;;;9.90;6.80;;;;;;;20.30;45.05;100801.21;107739;1256;65792;-88
2023/05/15 06:38:15;;;;;;;14.70;7.10;;;;;;;20.40;44.97;100801.24;106950;1254;60459;-92
2023/05/15 06:40:42;;;;;;;10.60;6.50;;;;;;;20.51;44.68;100800.66;106753;1254;60367;-88
2023/05/15 06:43:09;;;;;;;13.20;6.30;;;;;;;20.62;44.26;100792.72;108380;1259;66063;-88
2023/05/15 06:45:43;;;;;;;7.80;6.00;;;;;;;20.71;43.93;100789.99;108496;1254;63729;-88
2023/05/15 06:48:10;;;;;;;9.90;6.80;;;;;;;20.81;43.85;100791.42;107923;1254;65943;-86
2023/05/15 06:54:21;;;;;;;12.10;7.20;;;;;;;21.16;42.87;100788.19;106550;1257;62134;-89
2023/05/15 06:57:01;;;;;;;8.60;6.70;;;;;;;21.30;42.48;100787.47;106427;1256;66185;-90
2023/05/15 06:59:28;;;;;;;11.00;7.10;;;;;;;21.39;42.44;100784.34;107410;1259;62388;-88
2023/05/15 07:01:55;;;;;;;8.80;5.80;;;;;;;21.45;42.16;100781.80;106380;1257;66242;-89
2023/05/15 07:04:22;;;;;;;8.50;5.60;;;;;;;21.43;41.83;100782.48;107591;1256;60416;-87
2023/05/15 07:07:24;;;;;;;7.20;4.40;;;;;;;21.44;40.52;100783.66;106388;1256;60430;-87
2023/05/15 07:09:51;;;;;;;9.30;5.40;;;;;;;21.49;39.50;100779.89;106704;1265;66159;-89
2023/05/15 07:12:18;;;;;;;7.40;4.50;;;;;;;21.67;38.53;100780.30;106463;1262;62842;-88
2023/05/15 07:14:45;;;;;;;6.50;4.40;;;;;;;21.68;37.91;100779.12;108397;1255;65065;-88
2023/05/15 07:17:12;;;;;;;11.10;4.20;;;;;;;21.74;37.76;100780.85;108760;1255;59251;-93
2023/05/15 07:20:05;;;;;;;7.90;4.70;;;;;;;21.85;37.40;100781.52;106630;1256;60930;-88
2023/05/15 07:22:33;;;;;;;7.80;5.20;;;;;;;21.95;36.94;100775.46;106707;1257;65681;-89
2023/05/15 07:25:56;;;;;;;7.30;3.60;;;;;;;22.07;35.65;100770.20;106045;1256;455349;-87
2023/05/15 07:30:59;;;;;;;5.40;3.50;;;;;;;22.04;33.99;100765.65;102398;1292;601590;-63
2023/05/15 07:33:29;;;;;;;5.90;3.40;;;;;;;22.29;33.74;100769.28;105147;1269;59307;-58
2023/05/15 07:35:55;;;;;;;8.60;3.60;;;;;;;22.40;33.44;100769.98;104947;1271;59188;-62
2023/05/15 07:38:22;;;;;;;7.40;3.70;;;;;;;22.60;32.88;100765.55;105206;1269;65788;-63
2023/05/15 07:40:50;;;;;;;6.40;3.60;;;;;;;22.79;32.43;100764.55;105362;1267;63852;-63
2023/05/15 07:43:26;;;;;;;7.60;3.50;;;;;;;22.89;31.90;100761.58;102599;1282;10267044;-61
2023/05/15 07:45:56;;;;;;;6.50;3.60;;;;;;;22.94;31.60;100760.05;104988;1280;59335;-63
2023/05/15 07:48:27;;;;;;;6.40;3.80;;;;;;;22.88;31.33;100760.88;104920;1270;59335;-60
2023/05/15 07:51:16;;;;;;;6.00;3.60;;;;;;;23.03;30.69;100755.45;105575;1262;64760;-61
2023/05/15 07:54:03;;;;;;;8.30;3.80;;;;;;;23.11;30.03;100751.58;105858;1266;63813;-61
2023/05/15 07:56:31;;;;;;;8.60;3.50;;;;;;;23.17;29.54;100750.27;105851;1257;66129;-63
2023/05/15 07:59:01;;;;;;;7.40;3.80;;;;;;;23.22;29.35;100744.86;105353;1259;61344;-63
2023/05/15 08:01:28;;;;;;;6.20;3.40;;;;;;;23.26;29.71;100745.02;106032;1265;59763;-61
2023/05/15 08:03:58;;;;;;;5.50;3.30;;;;;;;23.32;29.78;100742.90;106024;1262;65402;-63
2023/05/15 08:06:25;;;;;;;9.00;3.80;;;;;;;23.28;29.76;100741.34;106086;1257;63817;-61
2023/05/15 08:08:52;;;;;;;5.70;3.30;;;;;;;23.21;29.97;100737.05;106207;1261;64833;-61
2023/05/15 08:11:20;;;;;;;11.50;3.80;;;;;;;23.25;30.13;100733.48;105233;1263;59398;-60
2023/05/15 08:13:47;;;;;;;5.90;3.40;;;;;;;23.32;29.67;100733.15;105897;1263;59762;-60
2023/05/15 08:16:14;;;;;;;9.40;4.00;;;;;;;23.38;29.68;100730.16;105633;1258;66602;-62
2023/05/15 08:18:41;;;;;;;5.90;3.80;;;;;;;23.45;29.97;100734.92;105906;1261;62715;-62
2023/05/15 08:21:08;;;;;;;7.20;4.20;;;;;;;23.50;29.75;100731.55;106242;1259;66223;-61
2023/05/15 08:23:35;;;;;;;7.20;4.10;;;;;;;23.56;30.20;100729.46;106346;1253;59752;-65
2023/05/15 08:26:02;;;;;;;8.30;4.00;;;;;;;23.64;30.22;100729.63;106353;1253;60116;-63
2023/05/15 08:28:29;;;;;;;8.70;4.40;;;;;;;23.71;30.17;100734.52;106354;1253;66460;-62
2023/05/15 08:30:56;;;;;;;7.50;4.10;;;;;;;23.79;30.35;100726.91;106448;1259;64155;-59
2023/05/15 08:33:23;;;;;;;6.50;4.20;;;;;;;23.86;30.00;100723.86;106875;1254;65977;-60
2023/05/15 08:35:51;;;;;;;7.30;4.00;;;;;;;23.91;29.62;100720.69;106990;1259;59656;-62
2023/05/15 08:38:18;;;;;;;6.20;4.10;;;;;;;23.96;29.42;100718.55;106464;1254;59661;-62
2023/05/15 08:40:46;;;;;;;6.60;3.70;;;;;;;24.03;29.15;100721.05;106346;1254;65390;-61
2023/05/15 08:43:15;;;;;;;7.50;4.10;;;;;;;24.10;28.79;100724.21;106253;1253;64265;-62
2023/05/15 08:45:42;;;;;;;7.60;3.90;;;;;;;24.20;28.61;100718.15;106130;1260;65140;-62
2023/05/15 08:48:12;;;;;;;9.10;4.30;;;;;;;24.28;28.10;100716.45;106373;1260;59664;-62
2023/05/15 08:50:39;;;;;;;7.40;4.00;;;;;;;24.37;27.89;100715.67;106335;1260;59598;-70
2023/05/15 08:53:06;;;;;;;8.10;3.80;;;;;;;24.47;28.16;100716.27;106338;1259;66558;-61
2023/05/15 08:55:33;;;;;;;7.00;3.50;;;;;;;24.59;28.09;100711.61;107775;1254;64090;-63
2023/05/15 08:58:00;;;;;;;7.50;3.70;;;;;;;24.73;27.74;100710.49;108987;1254;66549;-63
2023/05/15 09:00:27;;;;;;;7.50;3.90;;;;;;;24.88;27.33;100704.39;107709;1259;59707;-63
2023/05/15 09:02:58;;;;;;;6.60;3.40;;;;;;;25.03;26.81;100704.77;106305;1254;59690;-62
2023/05/15 09:05:26;;;;;;;8.30;4.20;;;;;;;25.17;26.35;100705.90;106717;1256;65216;-63
2023/05/15 09:07:55;;;;;;;8.00;3.90;;;;;;;25.32;26.29;100707.20;106026;1259;72383;-62
2023/05/15 09:10:23;;;;;;;8.30;3.60;;;;;;;25.46;26.11;100706.71;106225;1258;65255;-61
2023/05/15 09:12:50;;;;;;;10.10;3.30;;;;;;;25.61;25.71;100705.06;106261;1254;59674;-63
2023/05/15 09:15:20;;;;;;;7.60;2.80;;;;;;;25.76;23.65;100701.42;106358;1258;59667;-64
2023/05/15 09:17:48;;;;;;;7.00;3.10;;;;;;;25.92;23.84;100696.88;106243;1261;66610;-65
2023/05/15 09:20:34;;;;;;;5.80;3.20;;;;;;;26.09;24.77;100696.86;106159;1260;62389;-62
2023/05/15 09:23:02;;;;;;;5.30;2.80;;;;;;;26.24;24.44;100694.25;106255;1257;65783;-62
2023/05/15 09:25:43;;;;;;;5.10;2.90;;;;;;;26.39;23.71;100690.20;106200;1254;59633;-63
2023/05/15 09:28:24;;;;;;;6.60;2.70;;;;;;;26.52;23.52;100687.31;106496;1260;59819;-62
2023/05/15 09:30:56;;;;;;;6.70;2.70;;;;;;;26.61;23.71;100687.74;106976;1259;66473;-62
2023/05/15 09:33:30;;;;;;;5.20;2.80;;;;;;;26.70;23.56;100685.50;106265;1259;63814;-63
2023/05/15 09:35:57;;;;;;;5.80;2.70;;;;;;;26.74;22.92;100687.02;106258;1257;66228;-63
2023/05/15 09:38:24;;;;;;;5.50;3.10;;;;;;;26.75;23.29;100684.71;106161;1261;59669;-62
2023/05/15 09:41:06;;;;;;;7.80;2.90;;;;;;;26.77;23.46;100681.30;106253;1260;59570;-64
2023/05/15 09:43:37;;;;;;;6.60;2.80;;;;;;;26.82;23.38;100681.23;106210;1256;66840;-64
2023/05/15 09:46:05;;;;;;;5.80;2.90;;;;;;;26.90;23.49;100676.72;106165;1259;62521;-65
2023/05/15 09:48:33;;;;;;;6.00;2.80;;;;;;;27.01;23.37;100681.02;106237;1260;66289;-63
2023/05/15 09:51:01;;;;;;;5.60;2.60;;;;;;;27.11;22.87;100677.83;106256;1256;59683;-63
2023/05/15 09:53:28;;;;;;;5.40;2.70;;;;;;;27.22;22.19;100675.54;105536;1258;59733;-63
2023/05/15 09:55:55;;;;;;;5.60;3.00;;;;;;;27.33;22.24;100680.80;106279;1254;65956;-63
2023/05/15 09:58:22;;;;;;;6.80;3.00;;;;;;;27.41;22.82;100678.91;106269;1262;63764;-61
2023/05/15 10:00:49;;;;;;;7.10;3.00;;;;;;;27.46;22.63;100676.84;106844;1257;66216;-61
2023/05/15 10:03:19;;;;;;;6.20;3.30;;;;;;;27.52;22.55;100675.65;105256;1254;60287;-62
2023/05/15 10:05:46;;;;;;;7.90;2.90;;;;;;;27.60;22.51;100670.84;106293;1260;59554;-64
2023/05/15 10:08:15;;;;;;;6.20;2.60;;;;;;;27.69;22.06;100668.44;106109;1254;66498;-64
2023/05/15 10:10:42;;;;;;;5.40;2.60;;;;;;;27.74;22.10;100668.89;106215;1254;62719;-63
2023/05/15 10:13:09;;;;;;;4.90;2.70;;;;;;;27.79;22.13;100670.87;106237;1259;64967;-63
2023/05/15 10:15:36;;;;;;;5.90;2.50;;;;;;;27.84;22.12;100670.30;106210;1257;59648;-63
2023/05/15 10:18:03;;;;;;;5.90;2.40;;;;;;;27.85;21.17;100668.30;106086;1261;59272;-62
2023/05/15 10:20:34;;;;;;;6.90;2.80;;;;;;;27.82;21.26;100665.63;106120;1261;66556;-63
2023/05/15 10:23:03;;;;;;;4.70;2.60;;;;;;;27.81;21.89;100662.60;106620;1259;63713;-62
2023/05/15 10:25:39;;;;;;;5.00;2.80;;;;;;;27.80;22.42;100659.38;106209;1259;66373;-63
2023/05/15 10:28:10;;;;;;;4.70;2.40;;;;;;;27.87;22.13;100658.11;106176;1254;59632;-63
2023/05/15 10:30:37;;;;;;;5.20;2.70;;;;;;;27.90;21.50;100655.79;106034;1254;59655;-64
2023/05/15 10:33:05;;;;;;;5.80;3.10;;;;;;;28.03;21.86;100653.12;106015;1254;66786;-64
2023/05/15 10:35:38;;;;;;;5.60;2.70;;;;;;;28.08;21.84;100650.80;106109;1260;64364;-65
2023/05/15 10:38:05;;;;;;;7.10;2.90;;;;;;;28.08;21.89;100649.01;106035;1259;66191;-62
2023/05/15 10:40:32;;;;;;;6.90;3.20;;;;;;;28.12;21.91;100649.11;106136;1257;59756;-64
2023/05/15 10:43:00;;;;;;;7.50;2.90;;;;;;;28.31;21.98;100649.90;105963;1254;59634;-63
2023/05/15 10:45:28;;;;;;;6.80;3.30;;;;;;;28.36;21.89;100649.42;106195;1255;65462;-64
2023/05/15 10:47:55;;;;;;;6.70;3.60;;;;;;;28.26;22.11;100644.59;106056;1259;62801;-63
2023/05/15 10:50:22;;;;;;;5.60;2.70;;;;;;;28.28;22.20;100642.42;105868;1263;65968;-62
2023/05/15 10:52:52;;;;;;;5.70;2.80;;;;;;;28.36;21.99;100640.96;106187;1260;59771;-63
2023/05/15 10:55:19;;;;;;;5.20;3.00;;;;;;;28.44;21.87;100637.13;106178;1255;59254;-64
2023/05/15 10:57:46;;;;;;;7.00;3.50;;;;;;;28.52;21.71;100636.27;106208;1260;66715;-64
2023/05/15 11:00:22;;;;;;;5.80;3.00;;;;;;;28.55;21.75;100632.23;106209;1254;63756;-62
2023/05/15 11:02:52;;;;;;;6.80;3.10;;;;;;;28.70;21.24;100624.55;105442;1259;66050;-62
2023/05/15 11:05:19;;;;;;;5.80;3.30;;;;;;;28.81;20.74;100619.96;106335;1256;59748;-62
2023/05/15 11:08:17;;;;;;;6.10;3.10;;;;;;;28.91;20.97;100618.94;106227;1254;59820;-62
2023/05/15 11:10:44;;;;;;;10.20;3.60;;;;;;;28.98;21.72;100618.59;106230;1254;65483;-62
2023/05/15 11:13:10;;;;;;;5.70;3.10;;;;;;;28.89;21.51;100616.52;106179;1260;64030;-62
2023/05/15 11:15:42;;;;;;;6.40;3.10;;;;;;;28.90;21.33;100609.39;106189;1254;66168;-62
2023/05/15 11:18:09;;;;;;;8.60;3.70;;;;;;;28.93;21.93;100612.21;106164;1254;59751;-64
2023/05/15 11:20:41;;;;;;;7.10;3.00;;;;;;;28.95;22.07;100609.17;106293;1258;59817;-63
2023/05/15 11:23:08;;;;;;;6.30;3.30;;;;;;;28.97;22.10;100605.16;106380;1260;65324;-63
2023/05/15 11:25:36;;;;;;;6.10;3.50;;;;;;;29.03;22.36;100601.64;106388;1259;62635;-64
2023/05/15 11:28:03;;;;;;;6.40;3.70;;;;;;;29.09;21.96;100598.77;106373;1255;65091;-62